createdAt,value
2023-04-24T00:01:35.113Z,100.00
2023-04-24T00:06:37.686Z,100.00
2023-04-24T00:11:41.181Z,100.00
2023-04-24T00:16:42.977Z,100.00
2023-04-24T00:21:45.126Z,100.00
2023-04-24T00:26:48.430Z,100.00
2023-04-24T00:31:50.209Z,100.00
2023-04-24T00:36:51.912Z,100.00
2023-04-24T00:41:55.061Z,100.00
2023-04-24T00:46:57.683Z,100.00
2023-04-24T00:51:59.507Z,100.00
2023-04-24T00:57:03.758Z,100.00
2023-04-24T01:02:05.501Z,100.00
2023-04-24T01:07:07.553Z,100.00
2023-04-24T01:12:10.694Z,99.51
2023-04-24T01:17:12.452Z,100.00
2023-04-24T01:22:17.193Z,100.00
2023-04-24T01:27:19.182Z,100.00
2023-04-24T01:32:21.032Z,100.00
2023-04-24T01:37:24.126Z,100.00
2023-04-24T01:42:26.408Z,100.00
2023-04-24T01:47:28.728Z,100.00
2023-04-24T01:52:31.825Z,100.00
2023-04-24T01:57:34.753Z,100.00
2023-04-24T02:02:36.707Z,100.00
2023-04-24T02:07:40.363Z,100.00
2023-04-24T02:12:43.121Z,100.00
2023-04-24T02:17:44.844Z,100.00
2023-04-24T02:22:48.363Z,100.00
2023-04-24T02:27:50.105Z,100.00
2023-04-24T02:32:51.888Z,100.00
2023-04-24T02:37:54.953Z,100.00
2023-04-24T02:42:56.787Z,100.00
2023-04-24T02:47:58.613Z,100.00
2023-04-24T02:53:01.764Z,100.00
2023-04-24T02:58:03.684Z,100.00
2023-04-24T03:03:06.293Z,100.00
2023-04-24T03:08:10.132Z,100.00
2023-04-24T03:13:11.966Z,100.00
2023-04-24T03:18:13.679Z,100.00
2023-04-24T03:23:17.221Z,100.00
2023-04-24T03:28:19.345Z,100.00
2023-04-24T03:33:21.495Z,100.00
2023-04-24T03:38:24.974Z,100.00
2023-04-24T03:43:26.889Z,100.00
2023-04-24T03:48:28.992Z,100.00
2023-04-24T03:53:32.477Z,100.00
2023-04-24T03:58:34.389Z,100.00
2023-04-24T04:03:36.409Z,100.00
2023-04-24T04:08:39.646Z,100.00
2023-04-24T04:13:41.895Z,100.00
2023-04-24T04:18:43.856Z,100.00
2023-04-24T04:23:47.384Z,100.00
2023-04-24T04:28:49.105Z,100.00
2023-04-24T04:33:51.287Z,100.00
2023-04-24T04:38:54.747Z,100.00
2023-04-24T04:43:57.153Z,100.00
2023-04-24T04:48:59.093Z,100.00
2023-04-24T04:54:02.925Z,99.26
2023-04-24T04:59:05.240Z,98.30
2023-04-24T05:04:07.703Z,96.95
2023-04-24T05:09:11.116Z,96.06
2023-04-24T05:14:13.282Z,94.06
2023-04-24T05:19:15.678Z,90.29
2023-04-24T05:24:19.387Z,88.53
2023-04-24T05:29:21.606Z,85.28
2023-04-24T05:34:23.709Z,85.10
2023-04-24T05:39:26.843Z,86.68
2023-04-24T05:44:28.846Z,85.91
2023-04-24T05:49:30.696Z,82.35
2023-04-24T05:54:33.969Z,80.96
2023-04-24T05:59:38.645Z,79.74
2023-04-24T06:04:41.172Z,79.84
2023-04-24T06:09:44.729Z,75.76
2023-04-24T06:14:46.832Z,75.82
2023-04-24T06:19:48.951Z,75.75
2023-04-24T06:24:52.446Z,76.33
2023-04-24T06:29:54.601Z,76.04
2023-04-24T06:34:57.966Z,75.18
2023-04-24T06:40:02.608Z,74.70
2023-04-24T06:45:05.069Z,75.05
2023-04-24T06:50:07.723Z,76.03
2023-04-24T06:55:11.413Z,76.04
2023-04-24T07:00:14.866Z,76.53
2023-04-24T07:05:17.012Z,75.42
2023-04-24T07:10:20.250Z,73.58
2023-04-24T07:15:22.501Z,72.65
2023-04-24T07:20:24.783Z,74.78
2023-04-24T07:25:27.929Z,72.52
2023-04-24T07:30:29.602Z,71.24
2023-04-24T07:35:31.359Z,67.71
2023-04-24T07:40:34.801Z,66.15
2023-04-24T07:45:36.990Z,65.76
2023-04-24T07:50:39.074Z,64.81
2023-04-24T07:55:42.497Z,62.90
2023-04-24T08:00:44.448Z,62.32
2023-04-24T08:05:46.456Z,61.81
2023-04-24T08:10:50.117Z,63.72
2023-04-24T08:15:52.283Z,63.28
2023-04-24T08:20:54.244Z,64.87
2023-04-24T08:25:57.625Z,65.24
2023-04-24T08:30:59.679Z,64.82
2023-04-24T08:36:02.018Z,65.17
2023-04-24T08:41:06.182Z,64.84
2023-04-24T08:46:11.907Z,63.62
2023-04-24T08:51:14.363Z,62.91
2023-04-24T08:56:17.628Z,61.11
2023-04-24T09:01:21.519Z,61.94
2023-04-24T09:06:24.694Z,58.37
2023-04-24T09:11:28.473Z,59.42
2023-04-24T09:16:30.925Z,61.08
2023-04-24T09:21:34.034Z,60.11
2023-04-24T09:26:37.861Z,57.93
2023-04-24T09:31:40.076Z,57.20
2023-04-24T09:36:43.987Z,58.03
2023-04-24T09:41:48.140Z,56.39
2023-04-24T09:46:52.304Z,57.57
2023-04-24T09:52:04.340Z,57.22
2023-04-24T09:57:09.173Z,55.24
2023-04-24T10:02:19.092Z,46.76
2023-04-24T10:07:21.421Z,55.78
2023-04-24T10:12:26.215Z,60.79
2023-04-24T10:17:29.769Z,62.21
2023-04-24T10:22:32.453Z,61.64
2023-04-24T10:27:37.089Z,62.60
2023-04-24T10:32:39.177Z,60.08
2023-04-24T10:37:45.030Z,46.32
2023-04-24T10:42:52.952Z,52.47
2023-04-24T10:47:59.255Z,56.23
2023-04-24T10:53:08.083Z,57.39
2023-04-24T10:58:12.089Z,59.99
2023-04-24T11:03:29.282Z,60.32
2023-04-24T11:08:34.452Z,55.17
2023-04-24T11:14:11.808Z,58.62
2023-04-24T11:19:23.602Z,60.36
2023-04-24T11:24:31.025Z,60.21
2023-04-24T11:29:45.352Z,59.60
2023-04-24T11:34:49.174Z,57.87
2023-04-24T11:39:55.405Z,52.88
2023-04-24T11:44:59.144Z,48.38
2023-04-24T11:50:02.512Z,45.35
2023-04-24T11:55:05.814Z,42.25
2023-04-24T12:00:16.547Z,42.77
2023-04-24T12:05:23.247Z,42.38
2023-04-24T12:10:27.843Z,40.38
2023-04-24T12:15:31.184Z,40.71
2023-04-24T12:20:34.141Z,41.32
2023-04-24T12:25:36.389Z,42.07
2023-04-24T12:30:43.347Z,39.92
2023-04-24T12:35:45.675Z,39.92
2023-04-24T12:40:47.799Z,41.35
2023-04-24T12:45:51.337Z,40.38
2023-04-24T12:50:53.345Z,38.30
2023-04-24T12:55:55.496Z,38.85
2023-04-24T13:00:58.879Z,41.09
2023-04-24T13:06:01.150Z,41.53
2023-04-24T13:11:03.526Z,39.59
2023-04-24T13:16:07.535Z,40.56
2023-04-24T13:21:09.950Z,38.13
2023-04-24T13:26:12.176Z,39.67
2023-04-24T13:31:15.794Z,41.11
2023-04-24T13:36:18.110Z,41.63
2023-04-24T13:41:20.234Z,38.94
2023-04-24T13:46:23.522Z,37.04
2023-04-24T13:51:27.155Z,38.57
2023-04-24T13:56:29.018Z,39.33
2023-04-24T14:01:32.559Z,38.70
2023-04-24T14:06:35.081Z,40.51
2023-04-24T14:11:36.957Z,39.38
2023-04-24T14:16:40.653Z,39.85
2023-04-24T14:21:42.908Z,39.06
2023-04-24T14:26:45.094Z,40.43
2023-04-24T14:31:48.466Z,41.43
2023-04-24T14:36:50.817Z,41.69
2023-04-24T14:41:53.048Z,41.95
2023-04-24T14:46:56.202Z,41.04
2023-04-24T14:51:57.928Z,40.70
2023-04-24T14:56:59.725Z,42.81
2023-04-24T15:02:15.426Z,44.03
2023-04-24T15:07:19.761Z,43.71
2023-04-24T15:12:22.645Z,44.12
2023-04-24T15:17:26.172Z,44.56
2023-04-24T15:22:28.193Z,44.86
2023-04-24T15:27:40.699Z,45.39
2023-04-24T15:32:44.245Z,44.22
2023-04-24T15:37:46.583Z,43.60
2023-04-24T15:42:48.690Z,43.54
2023-04-24T15:47:52.325Z,44.65
2023-04-24T15:52:54.581Z,44.71
2023-04-24T15:57:56.721Z,45.37
2023-04-24T16:03:00.625Z,46.32
2023-04-24T16:08:03.317Z,47.35
2023-04-24T16:13:05.537Z,48.60
2023-04-24T16:18:08.718Z,50.68
2023-04-24T16:23:10.915Z,51.92
2023-04-24T16:28:13.053Z,56.29
2023-04-24T16:33:16.597Z,59.26
2023-04-24T16:38:18.715Z,61.44
2023-04-24T16:43:20.882Z,61.74
2023-04-24T16:48:24.251Z,61.92
2023-04-24T16:53:26.549Z,62.88
2023-04-24T16:58:28.660Z,63.89
2023-04-24T17:03:31.922Z,64.96
2023-04-24T17:08:34.474Z,63.95
2023-04-24T17:13:36.683Z,62.51
2023-04-24T17:18:40.479Z,62.30
2023-04-24T17:23:42.629Z,63.08
2023-04-24T17:28:44.802Z,63.30
2023-04-24T17:33:49.026Z,63.07
2023-04-24T17:38:51.182Z,61.64
2023-04-24T17:43:53.065Z,62.35
2023-04-24T17:48:56.665Z,63.16
2023-04-24T17:53:58.801Z,63.17
2023-04-24T17:59:00.561Z,63.32
2023-04-24T18:04:04.327Z,63.69
2023-04-24T18:09:07.263Z,64.45
2023-04-24T18:14:09.393Z,64.58
2023-04-24T18:19:12.860Z,65.31
2023-04-24T18:24:15.243Z,65.64
2023-04-24T18:29:16.981Z,65.74
2023-04-24T18:34:20.468Z,66.51
2023-04-24T18:39:23.160Z,66.73
2023-04-24T18:44:25.409Z,67.35
2023-04-24T18:49:28.860Z,68.15
2023-04-24T18:54:31.184Z,68.80
2023-04-24T18:59:33.302Z,69.15
2023-04-24T19:04:36.559Z,69.26
2023-04-24T19:09:39.299Z,68.46
2023-04-24T19:14:41.679Z,68.53
2023-04-24T19:19:44.778Z,68.83
2023-04-24T19:24:47.258Z,68.13
2023-04-24T19:29:49.386Z,68.85
2023-04-24T19:34:52.515Z,69.43
2023-04-24T19:39:54.834Z,70.05
2023-04-24T19:44:56.989Z,70.61
2023-04-24T19:50:00.516Z,71.36
2023-04-24T19:55:02.971Z,71.65
2023-04-24T20:00:05.888Z,72.82
2023-04-24T20:05:10.085Z,72.85
2023-04-24T20:10:12.163Z,73.44
2023-04-24T20:15:14.325Z,73.30
2023-04-24T20:20:17.487Z,74.44
2023-04-24T20:25:19.683Z,75.35
2023-04-24T20:30:21.998Z,76.00
2023-04-24T20:35:25.622Z,76.03
2023-04-24T20:40:28.728Z,75.95
2023-04-24T20:45:31.470Z,76.30
2023-04-24T20:50:35.144Z,76.99
2023-04-24T20:55:37.105Z,76.94
2023-04-24T21:00:39.901Z,77.93
2023-04-24T21:05:43.872Z,78.65
2023-04-24T21:10:46.829Z,79.57
2023-04-24T21:15:49.326Z,79.52
2023-04-24T21:20:53.064Z,79.57
2023-04-24T21:25:55.827Z,80.51
2023-04-24T21:30:58.202Z,80.90
2023-04-24T21:36:01.975Z,80.71
2023-04-24T21:41:04.084Z,80.35
2023-04-24T21:46:06.320Z,80.88
2023-04-24T21:51:09.836Z,81.39
2023-04-24T21:56:12.647Z,81.67
2023-04-24T22:01:14.728Z,82.18
2023-04-24T22:06:18.012Z,82.48
2023-04-24T22:11:26.671Z,82.92
2023-04-24T22:16:31.180Z,82.97
2023-04-24T22:21:35.036Z,83.06
2023-04-24T22:26:36.952Z,83.75
2023-04-24T22:31:39.142Z,83.32
2023-04-24T22:36:42.979Z,82.24
2023-04-24T22:41:44.877Z,82.29
2023-04-24T22:46:46.842Z,82.85
2023-04-24T22:51:49.945Z,81.92
2023-04-24T22:56:52.158Z,82.04
2023-04-24T23:01:54.078Z,82.06
2023-04-24T23:06:57.615Z,80.24
2023-04-24T23:12:00.026Z,78.10
2023-04-24T23:17:02.596Z,77.94
2023-04-24T23:22:06.112Z,76.00
2023-04-24T23:27:07.974Z,74.43
2023-04-24T23:32:10.022Z,74.40
2023-04-24T23:37:13.530Z,73.81
2023-04-24T23:42:15.294Z,72.39
2023-04-24T23:47:17.255Z,72.41
2023-04-24T23:52:20.971Z,72.03
2023-04-24T23:57:23.101Z,72.20
